Time;durP1;ratioP1;P1;durP2;ratioP2;P2;SDS_P1;SDS_P2;PMS_P1;PMS_P2;Temp;Humidity;BMP_temperature;BMP_pressure;BME280_temperature;BME280_humidity;BME280_pressure;Samples;Min_cycle;Max_cycle;Signal;HPM_P1;HPM_P2
2023/03/30 00:02:37;;;;;;;3.60;2.37;;;;;;;19.36;39.92;98464.19;7081032;27;20219;-76
2023/03/30 00:06:05;;;;;;;8.83;2.77;;;;;;;19.87;39.61;98446.78;7081510;27;20254;-77
2023/03/30 00:09:29;;;;;;;8.10;3.00;;;;;;;20.48;39.15;98435.53;7081579;27;20195;-78
2023/03/30 00:12:51;;;;;;;8.60;2.87;;;;;;;20.22;39.28;98439.38;7080823;27;20229;-77
2023/03/30 00:16:14;;;;;;;9.17;3.00;;;;;;;20.35;39.09;98438.81;7080975;27;20204;-78
2023/03/30 00:19:36;;;;;;;7.07;2.73;;;;;;;20.08;39.90;98430.09;7080704;27;20204;-76
2023/03/30 00:22:59;;;;;;;17.90;3.60;;;;;;;20.60;38.79;98427.81;7080310;27;20252;-76
2023/03/30 00:26:21;;;;;;;9.83;3.20;;;;;;;19.92;39.79;98425.69;7080681;27;20208;-77
2023/03/30 00:29:42;;;;;;;12.80;2.80;;;;;;;20.10;40.38;98438.03;7071814;27;20205;-76
2023/03/30 00:33:04;;;;;;;6.80;2.87;;;;;;;20.13;40.12;98426.53;7052373;28;20298;-76
2023/03/30 00:36:25;;;;;;;8.30;2.90;;;;;;;20.05;40.13;98410.66;7052369;28;20206;-79
2023/03/30 00:39:48;;;;;;;10.53;3.80;;;;;;;20.07;40.30;98412.03;7051540;28;20204;-76
2023/03/30 00:43:11;;;;;;;12.67;4.27;;;;;;;20.32;39.85;98398.31;7051991;28;20299;-77
2023/03/30 00:46:33;;;;;;;10.70;3.73;;;;;;;20.16;39.70;98401.38;7052155;28;20295;-76
2023/03/30 00:49:55;;;;;;;11.03;3.47;;;;;;;19.44;41.32;98409.78;7051450;28;20283;-76
2023/03/30 00:53:20;;;;;;;7.53;2.93;;;;;;;19.64;40.47;98373.44;7051455;28;20334;-76
2023/03/30 00:56:43;;;;;;;6.33;3.30;;;;;;;19.86;40.61;98372.06;7051558;28;20189;-76
2023/03/30 01:00:10;;;;;;;8.47;3.23;;;;;;;19.51;41.58;98369.34;7051370;28;20296;-76
2023/03/30 01:03:33;;;;;;;11.33;3.37;;;;;;;19.47;42.19;98373.72;7051665;28;20575;-76
2023/03/30 01:06:56;;;;;;;13.37;3.23;;;;;;;19.79;41.05;98357.84;7051307;28;20209;-77
2023/03/30 01:10:19;;;;;;;10.10;3.37;;;;;;;20.34;40.50;98354.22;7051341;28;20220;-76
2023/03/30 01:13:45;;;;;;;10.23;3.27;;;;;;;20.19;40.58;98349.63;7062015;28;20211;-77
2023/03/30 01:17:14;;;;;;;7.63;3.47;;;;;;;20.37;40.25;98348.19;7079829;28;20240;-76
2023/03/30 01:20:58;;;;;;;6.33;3.03;;;;;;;20.51;40.00;98332.81;7079467;28;20191;-76
2023/03/30 01:25:09;;;;;;;10.60;2.70;;;;;;;20.58;39.46;98308.69;7079646;28;20368;-77
2023/03/30 01:28:35;;;;;;;12.03;3.67;;;;;;;20.42;40.13;98335.31;7079533;28;20189;-76
2023/03/30 01:32:35;;;;;;;11.20;3.67;;;;;;;20.16;41.17;98343.88;7079049;28;20561;-76
2023/03/30 01:36:23;;;;;;;7.83;3.87;;;;;;;20.11;43.08;98357.56;7079497;28;20614;-76
2023/03/30 01:39:54;;;;;;;11.87;3.87;;;;;;;19.21;46.84;98363.81;7083773;27;20189;-76
2023/03/30 01:43:18;;;;;;;10.23;3.50;;;;;;;18.40;49.54;98412.94;7084814;27;20828;-78
2023/03/30 01:46:44;;;;;;;9.00;4.20;;;;;;;18.39;50.34;98417.56;7084678;27;20239;-76
2023/03/30 01:50:10;;;;;;;7.03;3.70;;;;;;;18.20;50.75;98399.94;7084212;27;20195;-78
2023/03/30 01:53:34;;;;;;;7.27;3.40;;;;;;;18.75;48.71;98383.88;7084085;27;20500;-76
2023/03/30 01:57:01;;;;;;;10.50;3.60;;;;;;;19.17;47.52;98379.09;7084271;27;20248;-76
2023/03/30 02:00:23;;;;;;;13.80;3.70;;;;;;;19.27;46.98;98370.16;7083961;27;20606;-76
2023/03/30 02:03:48;;;;;;;14.57;3.80;;;;;;;19.24;47.31;98363.31;7084541;27;20682;-76
2023/03/30 02:07:12;;;;;;;18.50;4.10;;;;;;;19.04;46.57;98365.94;7084474;27;20249;-76
2023/03/30 02:10:35;;;;;;;10.40;3.57;;;;;;;19.57;45.76;98395.59;7083869;27;20649;-76
2023/03/30 02:13:58;;;;;;;8.43;3.67;;;;;;;19.31;46.60;98390.34;7084219;27;20223;-76
2023/03/30 02:17:23;;;;;;;10.60;3.27;;;;;;;19.32;46.54;98381.06;7084050;27;20200;-76
2023/03/30 02:20:44;;;;;;;11.03;3.37;;;;;;;19.45;47.21;98377.81;7083531;27;20200;-76
2023/03/30 02:24:10;;;;;;;9.80;3.30;;;;;;;18.96;48.28;98384.78;7083550;27;20682;-76
2023/03/30 02:27:32;;;;;;;11.20;3.83;;;;;;;18.94;48.32;98386.97;7083768;27;20188;-79
2023/03/30 02:30:55;;;;;;;15.80;4.10;;;;;;;19.07;48.19;98402.84;7071402;27;20204;-76
2023/03/30 02:34:23;;;;;;;11.50;3.63;;;;;;;19.46;47.23;98399.41;7055167;28;20805;-76
2023/03/30 02:38:09;;;;;;;15.67;3.77;;;;;;;19.33;47.68;98396.41;7055007;28;20249;-76
2023/03/30 02:41:43;;;;;;;9.80;3.20;;;;;;;19.35;47.72;98408.69;7054683;28;20658;-76
2023/03/30 02:45:19;;;;;;;9.23;3.17;;;;;;;19.19;48.13;98406.16;7055167;28;20233;-76
2023/03/30 02:48:47;;;;;;;9.97;3.10;;;;;;;18.84;49.04;98404.16;7053612;28;20189;-75
2023/03/30 02:52:17;;;;;;;11.07;3.40;;;;;;;18.82;49.38;98410.97;7053770;28;20655;-76
2023/03/30 02:55:44;;;;;;;12.33;3.27;;;;;;;18.80;49.55;98403.03;7054988;28;20237;-76
2023/03/30 02:59:09;;;;;;;14.60;3.60;;;;;;;18.69;49.85;98397.81;7054378;28;20197;-76
2023/03/30 03:02:36;;;;;;;12.30;3.30;;;;;;;18.47;50.53;98400.69;7054056;28;20768;-76
2023/03/30 03:06:01;;;;;;;11.33;4.07;;;;;;;18.49;50.99;98395.78;7054311;28;20242;-76
2023/03/30 03:09:24;;;;;;;12.10;3.70;;;;;;;18.68;51.13;98394.22;7054207;28;20184;-78
2023/03/30 03:12:46;;;;;;;14.37;3.23;;;;;;;18.60;51.47;98397.50;7053818;28;20233;-76
2023/03/30 03:16:10;;;;;;;9.10;3.30;;;;;;;18.54;51.33;98387.63;7078848;27;20252;-76
2023/03/30 03:19:32;;;;;;;10.10;3.33;;;;;;;18.23;52.93;98369.41;7081973;27;20558;-81
2023/03/30 03:22:55;;;;;;;10.47;3.33;;;;;;;18.09;54.32;98342.84;7082065;27;20621;-76
2023/03/30 03:26:17;;;;;;;11.77;3.43;;;;;;;18.27;53.39;98372.44;7081797;27;20279;-76
2023/03/30 03:29:38;;;;;;;12.77;3.63;;;;;;;18.44;53.12;98365.72;7081591;27;20777;-76
2023/03/30 03:33:00;;;;;;;10.67;3.37;;;;;;;17.66;54.56;98311.22;7081787;27;20228;-77
2023/03/30 03:36:22;;;;;;;12.60;3.90;;;;;;;17.75;55.62;98350.53;7082099;27;20208;-76
2023/03/30 03:39:45;;;;;;;14.13;3.97;;;;;;;17.70;55.83;98342.31;7081252;27;20208;-78
2023/03/30 03:43:06;;;;;;;13.23;3.90;;;;;;;17.50;56.54;98342.16;7081809;27;20223;-77
2023/03/30 03:46:28;;;;;;;14.47;4.40;;;;;;;17.53;56.76;98322.59;7081284;27;20227;-77
2023/03/30 03:49:49;;;;;;;9.13;3.47;;;;;;;18.34;54.75;98324.72;7080828;27;20212;-76
2023/03/30 03:53:12;;;;;;;13.10;3.77;;;;;;;18.59;53.80;98318.56;7081150;27;20608;-76
2023/03/30 03:56:34;;;;;;;9.67;4.03;;;;;;;18.49;54.06;98315.78;7081532;27;20595;-76
2023/03/30 03:59:58;;;;;;;8.53;3.30;;;;;;;18.57;53.62;98324.28;7080183;27;20213;-78
2023/03/30 04:03:20;;;;;;;9.50;3.33;;;;;;;18.62;53.56;98318.84;7080845;27;20261;-76
2023/03/30 04:06:41;;;;;;;13.63;3.77;;;;;;;18.43;54.84;98334.06;7080973;27;20231;-76
2023/03/30 04:10:03;;;;;;;12.87;4.00;;;;;;;18.39;55.05;98296.66;7080084;27;20264;-78
2023/03/30 04:13:26;;;;;;;10.00;3.63;;;;;;;18.13;55.65;98295.69;7080656;27;20705;-78
2023/03/30 04:16:47;;;;;;;11.27;3.70;;;;;;;18.19;54.90;98300.09;7080307;27;20264;-77
2023/03/30 04:20:11;;;;;;;15.77;3.83;;;;;;;17.69;56.09;98296.25;7079541;27;20207;-78
2023/03/30 04:23:32;;;;;;;15.97;3.87;;;;;;;18.04;55.27;98291.00;7079958;27;20216;-77
2023/03/30 04:26:56;;;;;;;12.90;4.10;;;;;;;17.27;57.61;98276.28;7079919;27;20220;-76
2023/03/30 04:30:21;;;;;;;11.97;3.73;;;;;;;17.55;57.02;98260.44;7078058;27;20203;-77
2023/03/30 04:33:51;;;;;;;12.60;4.07;;;;;;;17.88;55.60;98226.53;7052495;27;20223;-77
2023/03/30 04:37:17;;;;;;;9.30;4.27;;;;;;;18.64;53.50;98226.53;7051863;28;20216;-77
2023/03/30 04:40:38;;;;;;;10.87;4.47;;;;;;;18.69;53.58;98240.22;7051061;28;20302;-78
2023/03/30 04:44:02;;;;;;;10.83;3.63;;;;;;;17.85;55.49;98238.81;7051568;28;20276;-79
2023/03/30 04:47:24;;;;;;;15.03;3.60;;;;;;;18.46;54.01;98226.25;7054334;27;20204;-77
2023/03/30 04:50:48;;;;;;;14.90;4.07;;;;;;;18.75;53.00;98220.00;7065112;27;20276;-76
2023/03/30 04:54:09;;;;;;;12.90;4.00;;;;;;;18.92;53.20;98214.31;7079344;27;20219;-76
2023/03/30 04:57:31;;;;;;;12.83;4.03;;;;;;;19.08;52.60;98202.28;7079897;27;20717;-76
2023/03/30 05:00:52;;;;;;;11.50;4.63;;;;;;;18.93;53.44;98207.75;7073731;27;20227;-76
2023/03/30 05:04:15;;;;;;;12.67;3.40;;;;;;;18.93;53.75;98211.28;7079220;28;20246;-76
2023/03/30 05:07:37;;;;;;;8.60;4.30;;;;;;;18.21;55.77;98207.03;7061465;28;20201;-77
2023/03/30 05:11:01;;;;;;;18.93;4.27;;;;;;;18.28;56.22;98213.88;7051038;28;20745;-78
2023/03/30 05:14:22;;;;;;;10.40;3.87;;;;;;;18.50;55.24;98206.31;7053885;28;20269;-77
2023/03/30 05:17:44;;;;;;;12.93;4.27;;;;;;;18.39;55.92;98218.31;7056220;28;20333;-76
2023/03/30 05:21:07;;;;;;;11.57;4.23;;;;;;;17.55;57.96;98208.66;7055796;28;20208;-77
2023/03/30 05:24:29;;;;;;;13.83;4.17;;;;;;;17.74;57.86;98193.47;7056382;27;20781;-76
2023/03/30 05:27:50;;;;;;;15.53;4.53;;;;;;;17.74;58.20;98189.94;7056378;28;20306;-76
2023/03/30 05:31:12;;;;;;;16.27;3.63;;;;;;;18.42;55.80;98184.19;7069150;27;20199;-76
2023/03/30 05:34:33;;;;;;;15.07;4.10;;;;;;;18.52;55.04;98187.75;7064759;27;20228;-76
2023/03/30 05:37:57;;;;;;;13.80;6.07;;;;;;;18.39;55.78;98193.75;7073161;27;20715;-76
2023/03/30 05:41:18;;;;;;;13.43;4.63;;;;;;;18.32;56.21;98193.19;7055119;28;20264;-77
2023/03/30 05:44:40;;;;;;;15.03;4.30;;;;;;;18.49;56.13;98182.00;7080423;27;20708;-75
2023/03/30 05:48:01;;;;;;;11.93;4.00;;;;;;;18.50;56.05;98170.00;7079658;27;20207;-76
2023/03/30 05:51:23;;;;;;;8.73;4.20;;;;;;;18.44;56.09;98182.84;7083822;27;20298;-76
2023/03/30 05:54:45;;;;;;;12.87;4.47;;;;;;;18.29;56.40;98165.56;7083778;27;20223;-76
2023/03/30 05:58:07;;;;;;;10.60;4.17;;;;;;;18.10;57.13;98159.00;7084122;27;20714;-76
2023/03/30 06:01:28;;;;;;;9.40;4.20;;;;;;;18.24;57.23;98171.03;7083194;27;20267;-78
2023/03/30 06:04:51;;;;;;;13.43;3.87;;;;;;;17.85;57.92;98186.16;7083716;27;20283;-76
2023/03/30 06:08:12;;;;;;;11.23;4.23;;;;;;;18.18;57.43;98188.47;7083995;27;20215;-76
2023/03/30 06:11:35;;;;;;;14.67;3.90;;;;;;;18.09;57.62;98188.16;7083238;27;20232;-76
2023/03/30 06:14:56;;;;;;;11.90;4.67;;;;;;;18.53;55.77;98203.06;7083941;27;20371;-76
2023/03/30 06:18:18;;;;;;;14.20;4.30;;;;;;;18.57;55.42;98219.72;7083627;27;20215;-76
2023/03/30 06:21:39;;;;;;;12.63;4.67;;;;;;;18.46;55.43;98220.78;7082743;27;20207;-79
2023/03/30 06:25:01;;;;;;;11.30;4.10;;;;;;;18.43;55.84;98251.34;7082894;27;20235;-76
2023/03/30 06:28:24;;;;;;;9.93;4.57;;;;;;;18.64;55.54;98250.31;7082706;27;20203;-76
2023/03/30 06:31:46;;;;;;;11.37;4.23;;;;;;;18.73;54.95;98265.91;7082808;27;20200;-78
2023/03/30 06:35:14;;;;;;;10.90;5.00;;;;;;;18.55;55.67;98277.31;7082756;27;20646;-78
2023/03/30 06:38:35;;;;;;;12.97;4.97;;;;;;;17.91;58.39;98265.00;7082856;27;20191;-77
2023/03/30 06:41:57;;;;;;;14.00;4.63;;;;;;;17.88;58.72;98281.09;7082642;27;20662;-77
2023/03/30 06:45:20;;;;;;;15.93;5.57;;;;;;;17.82;58.66;98290.31;7083137;27;20231;-77
2023/03/30 06:48:41;;;;;;;15.97;6.67;;;;;;;17.19;61.01;98302.09;7076432;27;20200;-77
2023/03/30 06:52:03;;;;;;;15.13;5.10;;;;;;;16.99;61.55;98301.09;7062240;27;20605;-77
2023/03/30 06:55:24;;;;;;;15.17;4.73;;;;;;;17.68;59.50;98287.22;7053328;28;20200;-76
2023/03/30 06:58:46;;;;;;;14.83;5.77;;;;;;;17.76;58.52;98305.00;7069978;27;20720;-77
2023/03/30 07:02:12;;;;;;;15.23;5.40;;;;;;;18.24;57.76;98342.94;7056622;27;20216;-77
2023/03/30 07:05:34;;;;;;;15.73;5.70;;;;;;;18.31;57.54;98382.59;7074239;27;20678;-78
2023/03/30 07:08:55;;;;;;;13.77;5.00;;;;;;;18.31;57.08;98358.03;7081641;27;20212;-77
2023/03/30 07:12:17;;;;;;;10.97;4.60;;;;;;;18.61;56.50;98366.34;7080764;27;20223;-76
2023/03/30 07:15:38;;;;;;;12.87;4.13;;;;;;;18.59;56.29;98374.00;7079540;27;20204;-76
2023/03/30 07:19:01;;;;;;;16.87;5.33;;;;;;;18.74;55.89;98371.31;7078381;27;20680;-77
2023/03/30 07:22:23;;;;;;;12.80;5.27;;;;;;;18.68;55.66;98398.88;7077896;27;20220;-76
2023/03/30 07:25:45;;;;;;;12.70;4.73;;;;;;;18.82;55.67;98397.31;7073113;27;20311;-76
2023/03/30 07:29:06;;;;;;;14.60;4.50;;;;;;;18.29;57.30;98414.72;7080397;27;20745;-77
2023/03/30 07:32:28;;;;;;;11.20;4.77;;;;;;;17.87;58.94;98426.72;7076988;27;20298;-77
2023/03/30 07:35:51;;;;;;;14.23;4.27;;;;;;;17.84;60.07;98432.69;7078525;27;20192;-77
2023/03/30 07:39:13;;;;;;;15.27;4.27;;;;;;;18.08;59.36;98437.53;7064300;27;20205;-77
2023/03/30 07:42:34;;;;;;;10.67;4.47;;;;;;;17.75;60.31;98435.06;7071451;27;20275;-77
2023/03/30 07:45:56;;;;;;;10.63;4.13;;;;;;;17.72;61.20;98437.50;7075120;27;20226;-77
2023/03/30 07:49:17;;;;;;;14.33;4.87;;;;;;;17.98;60.70;98436.63;7078616;27;20215;-77
2023/03/30 07:52:40;;;;;;;14.43;5.17;;;;;;;18.47;59.00;98425.28;7075350;27;20638;-76
2023/03/30 07:56:02;;;;;;;13.00;4.60;;;;;;;17.83;60.73;98387.41;7080463;27;20263;-78
2023/03/30 07:59:24;;;;;;;14.40;4.93;;;;;;;17.83;60.72;98418.25;7080155;27;20208;-76
2023/03/30 08:02:45;;;;;;;11.23;4.33;;;;;;;17.85;61.11;98432.44;7074915;27;20587;-76
2023/03/30 08:06:07;;;;;;;11.03;4.40;;;;;;;17.76;61.43;98422.28;7076736;27;20222;-75
2023/03/30 08:09:30;;;;;;;11.27;4.83;;;;;;;17.52;62.08;98405.41;7080485;27;20200;-77
2023/03/30 08:12:52;;;;;;;12.90;4.87;;;;;;;18.00;61.04;98396.28;7056320;27;20223;-76
2023/03/30 08:16:14;;;;;;;13.90;5.20;;;;;;;17.69;61.41;98386.22;7078256;27;20192;-76
2023/03/30 08:19:35;;;;;;;20.23;4.80;;;;;;;17.94;61.39;98436.34;7078035;27;20255;-75
2023/03/30 08:22:57;;;;;;;13.77;5.20;;;;;;;18.23;60.68;98464.09;7078603;27;20223;-75
2023/03/30 08:26:20;;;;;;;18.10;6.13;;;;;;;17.84;62.09;98476.31;7079760;27;20252;-76
2023/03/30 08:29:41;;;;;;;14.13;6.87;;;;;;;18.09;61.35;98501.09;7079172;27;20206;-77
2023/03/30 08:33:03;;;;;;;16.87;7.33;;;;;;;17.68;62.48;98499.91;7081069;27;20227;-81
2023/03/30 08:36:25;;;;;;;15.50;6.87;;;;;;;17.91;62.22;98496.03;7080273;27;20207;-76
2023/03/30 08:39:46;;;;;;;13.90;7.10;;;;;;;18.04;61.83;98495.63;7079130;27;20207;-77
2023/03/30 08:43:29;;;;;;;15.47;6.53;;;;;;;17.64;62.98;98468.78;7080728;27;20258;-75
2023/03/30 08:46:50;;;;;;;19.20;6.00;;;;;;;18.14;61.97;98482.03;7069251;27;20265;-76
2023/03/30 08:50:15;;;;;;;14.00;5.83;;;;;;;18.43;60.97;98462.38;7051211;28;20291;-76
2023/03/30 08:53:37;;;;;;;14.83;6.33;;;;;;;18.50;60.16;98483.97;7053909;27;20751;-76
2023/03/30 08:57:05;;;;;;;11.17;5.93;;;;;;;18.86;59.30;98472.97;7077729;27;20204;-76
2023/03/30 09:00:35;;;;;;;14.60;5.90;;;;;;;18.66;59.31;98455.66;7057653;28;20224;-76
2023/03/30 09:04:09;;;;;;;9.03;4.77;;;;;;;18.64;59.37;98446.94;7050746;28;20268;-76
2023/03/30 09:07:33;;;;;;;11.67;7.43;;;;;;;18.57;59.43;98446.34;7051217;28;20207;-77
2023/03/30 09:10:58;;;;;;;11.00;4.87;;;;;;;18.05;60.37;98418.13;7056969;28;20200;-76
2023/03/30 09:14:27;;;;;;;8.63;4.47;;;;;;;18.33;59.99;98415.88;7079084;28;20275;-76
2023/03/30 09:17:52;;;;;;;13.17;4.90;;;;;;;17.98;60.57;98418.34;7078631;27;20574;-76
2023/03/30 09:21:14;;;;;;;8.67;4.07;;;;;;;17.39;61.99;98402.31;7078761;28;20252;-78
2023/03/30 09:24:36;;;;;;;8.37;3.30;;;;;;;17.57;61.69;98399.22;7079214;28;20234;-77
2023/03/30 09:28:01;;;;;;;8.50;2.90;;;;;;;17.20;61.72;98398.25;7072487;28;20269;-77
2023/03/30 09:31:26;;;;;;;7.13;3.27;;;;;;;17.42;60.42;98404.50;7055606;27;20260;-76
2023/03/30 09:34:53;;;;;;;6.53;3.00;;;;;;;17.29;61.30;98408.44;7075780;28;20421;-76
2023/03/30 09:38:15;;;;;;;4.37;3.10;;;;;;;17.11;60.98;98397.88;7058799;28;20208;-77
2023/03/30 09:41:48;;;;;;;7.33;3.17;;;;;;;17.06;60.90;98405.19;7049806;28;20685;-76
2023/03/30 09:45:14;;;;;;;6.53;3.43;;;;;;;17.57;60.20;98424.53;7054114;28;20188;-77
2023/03/30 09:48:40;;;;;;;7.03;3.93;;;;;;;17.29;60.83;98415.78;7055334;28;20208;-76
2023/03/30 09:52:05;;;;;;;9.87;3.80;;;;;;;17.84;59.64;98433.53;7077832;28;20246;-76
2023/03/30 09:55:29;;;;;;;7.30;3.83;;;;;;;18.14;58.64;98443.81;7078533;28;20207;-77
2023/03/30 09:58:50;;;;;;;8.10;3.40;;;;;;;18.10;58.03;98445.47;7079042;27;20204;-76
2023/03/30 10:02:19;;;;;;;7.60;3.60;;;;;;;18.30;57.83;98456.50;7083085;27;20226;-79
2023/03/30 10:05:40;;;;;;;8.43;3.27;;;;;;;18.41;56.86;98450.06;7083842;27;20652;-79
2023/03/30 10:09:05;;;;;;;6.23;3.63;;;;;;;18.65;57.11;98448.56;7083967;27;20677;-75
2023/03/30 10:12:27;;;;;;;10.10;3.90;;;;;;;18.79;56.85;98447.00;7084615;27;20242;-80
2023/03/30 10:15:52;;;;;;;14.07;5.30;;;;;;;18.62;57.29;98452.66;7078554;27;20337;-79
2023/03/30 10:19:17;;;;;;;7.77;4.07;;;;;;;18.84;56.84;98445.13;7084514;27;20607;-78
2023/03/30 10:22:49;;;;;;;9.53;3.97;;;;;;;18.48;56.41;98428.81;7082526;27;20318;-77
2023/03/30 10:26:17;;;;;;;6.63;3.87;;;;;;;18.69;57.29;98436.03;7084369;27;20216;-80
2023/03/30 10:29:45;;;;;;;7.00;4.20;;;;;;;18.84;56.98;98436.91;7083638;27;20195;-79
2023/03/30 10:33:09;;;;;;;10.27;4.33;;;;;;;18.77;57.15;98436.34;7084051;27;20260;-77
2023/03/30 10:36:33;;;;;;;9.17;3.80;;;;;;;18.80;57.10;98413.94;7084593;27;20836;-76
2023/03/30 10:39:55;;;;;;;10.43;4.13;;;;;;;18.67;55.11;98432.72;7083044;27;20849;-78
2023/03/30 10:43:22;;;;;;;7.93;3.57;;;;;;;18.95;55.12;98405.81;7083984;27;20234;-80
2023/03/30 10:46:44;;;;;;;7.33;3.50;;;;;;;18.92;55.30;98427.41;7083802;27;20208;-83
2023/03/30 10:50:10;;;;;;;9.10;2.90;;;;;;;18.97;54.85;98406.38;7083522;27;20207;-79
2023/03/30 10:53:38;;;;;;;9.97;3.50;;;;;;;19.10;55.44;98418.72;7086054;27;20280;-81
2023/03/30 10:57:03;;;;;;;6.87;3.40;;;;;;;18.86;56.01;98414.81;7086208;27;20199;-78
2023/03/30 11:00:32;;;;;;;7.80;4.07;;;;;;;18.77;53.87;98413.66;7076480;27;20211;-82
2023/03/30 11:03:56;;;;;;;27.40;14.27;;;;;;;18.65;55.66;98410.34;7054503;28;20313;-79
2023/03/30 11:07:25;;;;;;;15.27;7.17;;;;;;;18.49;56.67;98409.44;7058130;27;20583;-82
2023/03/30 11:10:48;;;;;;;31.40;21.43;;;;;;;18.34;56.88;98401.16;7053201;28;20199;-80
2023/03/30 11:14:14;;;;;;;27.60;12.90;;;;;;;18.56;56.14;98387.34;7054198;28;20277;-77
2023/03/30 11:17:42;;;;;;;10.77;6.83;;;;;;;18.46;56.27;98390.03;7054276;28;20196;-76
2023/03/30 11:21:06;;;;;;;8.23;4.93;;;;;;;18.77;55.41;98386.34;7053331;28;20187;-77
2023/03/30 11:24:28;;;;;;;9.77;4.63;;;;;;;18.91;55.63;98401.97;7053637;28;20714;-76
2023/03/30 11:27:53;;;;;;;12.03;6.80;;;;;;;18.64;56.15;98425.88;7053882;28;20610;-76
2023/03/30 11:31:24;;;;;;;13.10;4.93;;;;;;;19.06;55.71;98417.59;7052805;28;20349;-76
2023/03/30 11:34:55;;;;;;;11.37;4.17;;;;;;;19.28;55.79;98410.06;7054171;28;20754;-76
2023/03/30 11:38:19;;;;;;;10.57;5.90;;;;;;;19.71;54.99;98415.84;7054414;28;20674;-79
2023/03/30 11:41:42;;;;;;;5.23;3.13;;;;;;;19.46;54.88;98410.34;7054505;28;20608;-79
2023/03/30 11:45:17;;;;;;;5.70;3.30;;;;;;;19.41;55.50;98424.00;7053858;28;20208;-80
2023/03/30 11:49:01;;;;;;;3.83;3.10;;;;;;;20.35;54.32;98427.06;7053188;28;20717;-79
2023/03/30 11:52:31;;;;;;;4.30;3.00;;;;;;;20.69;52.91;98404.22;7051709;28;20280;-79
2023/03/30 11:56:01;;;;;;;12.37;7.10;;;;;;;20.52;52.40;98411.13;7053466;28;20263;-79
2023/03/30 11:59:29;;;;;;;6.50;4.63;;;;;;;20.60;52.19;98413.31;7052500;28;20227;-82
2023/03/30 12:02:57;;;;;;;5.87;3.50;;;;;;;20.30;51.81;98413.38;7052537;28;20376;-78
2023/03/30 12:06:28;;;;;;;4.63;3.73;;;;;;;20.01;52.97;98434.19;7051704;28;20276;-77
2023/03/30 12:09:54;;;;;;;7.23;3.43;;;;;;;19.84;53.77;98436.34;7051454;28;20197;-76
2023/03/30 12:13:18;;;;;;;6.30;3.47;;;;;;;19.25;53.98;98399.63;7052520;28;20637;-76
2023/03/30 12:16:43;;;;;;;6.27;3.00;;;;;;;19.98;52.72;98430.06;7052202;28;20201;-76
2023/03/30 12:20:11;;;;;;;6.37;3.70;;;;;;;19.27;54.99;98433.00;7055066;27;20203;-76
2023/03/30 12:23:36;;;;;;;5.17;3.10;;;;;;;19.61;53.60;98434.97;7071146;27;20215;-76
2023/03/30 12:26:59;;;;;;;5.33;3.73;;;;;;;19.40;53.89;98443.44;7080028;27;20620;-77
2023/03/30 12:30:25;;;;;;;8.90;3.90;;;;;;;19.18;54.62;98423.66;7079656;27;20692;-76
2023/03/30 12:33:48;;;;;;;8.47;3.67;;;;;;;19.29;54.45;98411.69;7079436;27;20224;-76
2023/03/30 12:37:12;;;;;;;9.83;4.07;;;;;;;19.11;53.82;98388.38;7079973;27;20251;-77
2023/03/30 12:40:37;;;;;;;5.63;3.50;;;;;;;19.69;53.30;98400.81;7078998;27;20236;-76
2023/03/30 12:44:35;;;;;;;7.23;3.20;;;;;;;19.55;52.35;98394.22;7079779;27;20223;-78
2023/03/30 12:48:12;;;;;;;8.60;5.00;;;;;;;19.50;52.60;98380.53;7079747;27;20255;-77
2023/03/30 12:51:54;;;;;;;7.87;3.60;;;;;;;18.75;53.48;98377.63;7066604;27;20212;-75
2023/03/30 12:55:36;;;;;;;8.00;3.53;;;;;;;19.79;52.41;98368.78;7051153;28;20193;-76
2023/03/30 12:59:11;;;;;;;4.97;3.73;;;;;;;19.92;51.26;98370.16;7051643;28;20214;-76
2023/03/30 13:03:00;;;;;;;7.10;3.77;;;;;;;20.61;48.86;98360.97;7050611;28;20232;-76
2023/03/30 13:06:29;;;;;;;7.50;4.30;;;;;;;20.99;47.50;98357.53;7051257;28;20677;-76
2023/03/30 13:09:55;;;;;;;4.10;3.20;;;;;;;20.75;46.94;98337.34;7050496;28;20249;-77
2023/03/30 13:13:22;;;;;;;5.67;3.50;;;;;;;19.83;48.18;98338.97;7050909;28;20235;-76
2023/03/30 13:17:09;;;;;;;5.53;3.63;;;;;;;20.42;47.59;98340.78;7051116;28;20564;-76
2023/03/30 13:20:33;;;;;;;5.80;3.40;;;;;;;20.04;46.40;98341.38;7054186;28;20294;-77
2023/03/30 13:24:19;;;;;;;7.67;3.10;;;;;;;20.25;46.21;98331.25;7050301;28;20276;-77
2023/03/30 13:27:41;;;;;;;6.83;2.90;;;;;;;20.99;43.67;98316.41;7051388;28;20265;-77
2023/03/30 13:31:12;;;;;;;7.50;3.40;;;;;;;21.26;44.75;98325.03;7057121;28;20202;-77
2023/03/30 13:34:53;;;;;;;7.43;2.80;;;;;;;21.45;42.39;98334.19;7055727;28;20226;-79
2023/03/30 13:38:36;;;;;;;7.33;3.07;;;;;;;20.99;42.92;98330.13;7056939;28;20558;-78
2023/03/30 13:42:11;;;;;;;5.80;3.00;;;;;;;20.81;42.75;98329.94;7055393;28;20197;-78
2023/03/30 13:45:36;;;;;;;6.53;3.10;;;;;;;20.31;42.79;98322.75;7056735;28;20625;-80
2023/03/30 13:49:07;;;;;;;4.33;2.70;;;;;;;20.39;42.43;98308.47;7057094;28;20759;-80
2023/03/30 13:52:33;;;;;;;4.57;3.30;;;;;;;21.19;41.19;98325.31;7055458;28;20684;-83
2023/03/30 13:55:55;;;;;;;5.83;3.37;;;;;;;20.08;44.51;98328.84;7058509;28;20635;-82
2023/03/30 13:59:19;;;;;;;7.80;4.80;;;;;;;20.70;43.31;98318.19;7060403;28;20256;-78
2023/03/30 14:02:40;;;;;;;4.63;3.63;;;;;;;20.62;44.09;98316.03;7058994;28;20221;-78
2023/03/30 14:06:06;;;;;;;6.40;3.03;;;;;;;21.48;42.20;98282.31;7057973;27;20198;-79
2023/03/30 14:09:28;;;;;;;4.87;2.77;;;;;;;21.36;41.85;98290.09;7085911;27;20233;-80
2023/03/30 14:12:54;;;;;;;7.00;3.20;;;;;;;20.78;41.68;98282.78;7084604;27;20283;-82
2023/03/30 14:16:21;;;;;;;6.27;2.97;;;;;;;20.95;41.12;98285.22;7083845;27;20269;-79
2023/03/30 14:19:51;;;;;;;5.17;2.97;;;;;;;20.93;41.30;98298.34;7084255;27;20331;-79
2023/03/30 14:23:16;;;;;;;4.13;2.73;;;;;;;20.86;40.71;98295.09;7068223;27;20276;-80
2023/03/30 14:26:39;;;;;;;5.53;2.70;;;;;;;20.03;42.17;98265.03;7081685;27;20208;-78
2023/03/30 14:30:03;;;;;;;4.30;2.50;;;;;;;20.69;40.86;98291.09;7065919;27;20378;-79
2023/03/30 14:33:26;;;;;;;6.77;2.03;;;;;;;20.06;40.27;98275.44;7079308;27;20222;-80
2023/03/30 14:36:47;;;;;;;3.83;2.13;;;;;;;20.23;40.98;98306.06;7083421;27;20599;-79
2023/03/30 14:40:15;;;;;;;4.03;2.33;;;;;;;20.43;39.70;98304.09;7082567;27;20351;-79
2023/03/30 14:43:39;;;;;;;5.37;2.37;;;;;;;20.08;39.56;98296.00;7082622;27;20228;-78
2023/03/30 14:47:00;;;;;;;3.83;2.30;;;;;;;20.47;39.45;98294.22;7062469;27;20228;-79
2023/03/30 14:50:23;;;;;;;5.93;2.40;;;;;;;20.88;39.24;98305.78;7054121;28;20689;-79
2023/03/30 14:53:45;;;;;;;3.27;2.40;;;;;;;20.89;38.81;98321.97;7056111;27;20717;-79
2023/03/30 14:57:08;;;;;;;7.70;2.67;;;;;;;20.07;38.54;98288.88;7082787;27;20236;-79
2023/03/30 15:00:30;;;;;;;4.37;2.30;;;;;;;20.20;38.93;98301.97;7054296;28;20204;-81
2023/03/30 15:03:52;;;;;;;5.10;2.20;;;;;;;20.47;38.48;98302.44;7074958;27;20226;-80
2023/03/30 15:07:16;;;;;;;3.30;2.57;;;;;;;20.46;39.10;98316.41;7081794;27;20222;-80
2023/03/30 15:10:44;;;;;;;5.57;2.60;;;;;;;19.51;40.41;98327.50;7082851;27;20190;-80
2023/03/30 15:14:08;;;;;;;4.80;2.40;;;;;;;19.57;40.42;98334.63;7074687;27;20805;-80
2023/03/30 15:17:30;;;;;;;4.07;2.07;;;;;;;19.96;39.88;98311.03;7058693;27;20284;-83
2023/03/30 15:20:52;;;;;;;5.60;2.60;;;;;;;20.61;39.03;98332.75;7054378;28;20776;-82
2023/03/30 15:24:17;;;;;;;3.13;2.00;;;;;;;20.06;40.24;98320.09;7055126;28;20642;-81
2023/03/30 15:27:39;;;;;;;5.03;2.87;;;;;;;20.22;39.89;98323.59;7056668;28;20220;-80
2023/03/30 15:31:01;;;;;;;3.33;2.40;;;;;;;20.07;40.49;98323.63;7061048;28;20641;-79
2023/03/30 15:34:22;;;;;;;6.07;2.33;;;;;;;20.06;41.14;98320.09;7059705;28;20314;-79
2023/03/30 15:37:53;;;;;;;4.80;2.30;;;;;;;20.51;40.56;98322.66;7059429;28;20622;-78
2023/03/30 15:41:17;;;;;;;2.97;2.13;;;;;;;20.36;41.14;98321.91;7059100;28;20197;-81
2023/03/30 15:44:40;;;;;;;3.73;2.40;;;;;;;21.04;39.95;98315.59;7066079;28;20228;-80
2023/03/30 15:48:01;;;;;;;5.77;2.33;;;;;;;20.38;40.08;98328.75;7068288;28;20221;-79
2023/03/30 15:51:28;;;;;;;5.03;2.40;;;;;;;20.03;40.26;98308.81;7061483;28;20219;-78
2023/03/30 15:54:54;;;;;;;4.33;2.27;;;;;;;19.75;40.42;98345.00;7057998;28;20250;-81
2023/03/30 15:58:19;;;;;;;2.13;1.80;;;;;;;19.61;40.83;98346.63;7078887;27;20275;-79
2023/03/30 16:01:43;;;;;;;3.37;2.10;;;;;;;19.10;44.92;98353.94;7094621;28;20212;-80